sensor_id;sensor_type;location;lat;lon;timestamp;P1;durP1;ratioP1;P2;durP2;ratioP2
78989;SDS011;68390;52.130;21.218;2023-03-12T00:02:03;9.80;;;5.22;;
78989;SDS011;68390;52.130;21.218;2023-03-12T00:04:28;8.48;;;5.80;;
78989;SDS011;68390;52.130;21.218;2023-03-12T00:06:56;12.00;;;6.00;;
78989;SDS011;68390;52.130;21.218;2023-03-12T00:09:21;10.77;;;5.53;;
78989;SDS011;68390;52.130;21.218;2023-03-12T00:11:47;11.68;;;6.53;;
78989;SDS011;68390;52.130;21.218;2023-03-12T00:14:13;10.23;;;6.20;;
78989;SDS011;68390;52.130;21.218;2023-03-12T00:16:38;13.57;;;7.10;;
78989;SDS011;68390;52.130;21.218;2023-03-12T00:19:04;12.13;;;6.22;;
78989;SDS011;68390;52.130;21.218;2023-03-12T00:21:29;10.43;;;6.28;;
78989;SDS011;68390;52.130;21.218;2023-03-12T00:23:55;12.07;;;6.20;;
78989;SDS011;68390;52.130;21.218;2023-03-12T00:26:20;13.80;;;6.75;;
78989;SDS011;68390;52.130;21.218;2023-03-12T00:28:47;11.60;;;6.47;;
78989;SDS011;68390;52.130;21.218;2023-03-12T00:33:42;12.10;;;6.70;;
78989;SDS011;68390;52.130;21.218;2023-03-12T00:36:08;14.88;;;7.68;;
78989;SDS011;68390;52.130;21.218;2023-03-12T00:38:34;16.20;;;8.07;;
78989;SDS011;68390;52.130;21.218;2023-03-12T00:40:59;14.77;;;8.30;;
78989;SDS011;68390;52.130;21.218;2023-03-12T00:43:25;12.93;;;7.38;;
78989;SDS011;68390;52.130;21.218;2023-03-12T00:45:50;13.25;;;8.05;;
78989;SDS011;68390;52.130;21.218;2023-03-12T00:48:15;13.75;;;7.72;;
78989;SDS011;68390;52.130;21.218;2023-03-12T00:50:41;12.82;;;6.90;;
78989;SDS011;68390;52.130;21.218;2023-03-12T00:53:06;14.23;;;7.57;;
78989;SDS011;68390;52.130;21.218;2023-03-12T00:55:32;14.82;;;7.40;;
78989;SDS011;68390;52.130;21.218;2023-03-12T00:57:57;15.25;;;8.00;;
78989;SDS011;68390;52.130;21.218;2023-03-12T01:00:23;14.55;;;7.97;;
78989;SDS011;68390;52.130;21.218;2023-03-12T01:02:48;11.93;;;7.35;;
78989;SDS011;68390;52.130;21.218;2023-03-12T01:05:14;13.40;;;8.40;;
78989;SDS011;68390;52.130;21.218;2023-03-12T01:07:40;13.98;;;7.82;;
78989;SDS011;68390;52.130;21.218;2023-03-12T01:10:06;13.93;;;8.25;;
78989;SDS011;68390;52.130;21.218;2023-03-12T01:12:32;17.20;;;8.93;;
78989;SDS011;68390;52.130;21.218;2023-03-12T01:14:58;15.80;;;8.50;;
78989;SDS011;68390;52.130;21.218;2023-03-12T01:17:23;13.40;;;7.75;;
78989;SDS011;68390;52.130;21.218;2023-03-12T01:19:49;12.93;;;8.32;;
78989;SDS011;68390;52.130;21.218;2023-03-12T01:22:14;14.70;;;8.23;;
78989;SDS011;68390;52.130;21.218;2023-03-12T01:24:40;16.23;;;8.20;;
78989;SDS011;68390;52.130;21.218;2023-03-12T01:27:05;13.48;;;8.57;;
78989;SDS011;68390;52.130;21.218;2023-03-12T01:29:31;16.35;;;8.48;;
78989;SDS011;68390;52.130;21.218;2023-03-12T01:31:56;12.15;;;8.45;;
78989;SDS011;68390;52.130;21.218;2023-03-12T01:34:22;15.48;;;9.27;;
78989;SDS011;68390;52.130;21.218;2023-03-12T01:36:47;16.08;;;8.70;;
78989;SDS011;68390;52.130;21.218;2023-03-12T01:39:13;14.38;;;8.57;;
78989;SDS011;68390;52.130;21.218;2023-03-12T01:41:38;13.63;;;8.48;;
78989;SDS011;68390;52.130;21.218;2023-03-12T01:44:05;18.00;;;9.80;;
78989;SDS011;68390;52.130;21.218;2023-03-12T01:46:38;14.98;;;8.27;;
78989;SDS011;68390;52.130;21.218;2023-03-12T01:51:54;18.88;;;8.20;;
78989;SDS011;68390;52.130;21.218;2023-03-12T01:56:53;14.25;;;8.13;;
78989;SDS011;68390;52.130;21.218;2023-03-12T01:59:20;13.52;;;8.15;;
78989;SDS011;68390;52.130;21.218;2023-03-12T02:04:15;16.15;;;8.75;;
78989;SDS011;68390;52.130;21.218;2023-03-12T02:06:53;13.55;;;8.30;;
78989;SDS011;68390;52.130;21.218;2023-03-12T02:09:27;15.93;;;8.02;;
78989;SDS011;68390;52.130;21.218;2023-03-12T02:11:52;18.15;;;9.27;;
78989;SDS011;68390;52.130;21.218;2023-03-12T02:14:18;13.82;;;7.88;;
78989;SDS011;68390;52.130;21.218;2023-03-12T02:16:44;16.75;;;8.77;;
78989;SDS011;68390;52.130;21.218;2023-03-12T02:19:18;16.38;;;8.57;;
78989;SDS011;68390;52.130;21.218;2023-03-12T02:21:47;15.27;;;8.02;;
78989;SDS011;68390;52.130;21.218;2023-03-12T02:26:59;15.73;;;8.10;;
78989;SDS011;68390;52.130;21.218;2023-03-12T02:29:25;13.20;;;7.32;;
78989;SDS011;68390;52.130;21.218;2023-03-12T02:31:54;15.93;;;8.80;;
78989;SDS011;68390;52.130;21.218;2023-03-12T02:34:23;11.93;;;7.00;;
78989;SDS011;68390;52.130;21.218;2023-03-12T02:36:49;12.88;;;7.43;;
78989;SDS011;68390;52.130;21.218;2023-03-12T02:39:14;12.85;;;6.88;;
78989;SDS011;68390;52.130;21.218;2023-03-12T02:44:08;13.50;;;7.53;;
78989;SDS011;68390;52.130;21.218;2023-03-12T02:46:46;12.40;;;7.40;;
78989;SDS011;68390;52.130;21.218;2023-03-12T02:49:17;12.95;;;7.03;;
78989;SDS011;68390;52.130;21.218;2023-03-12T02:51:44;11.95;;;6.90;;
78989;SDS011;68390;52.130;21.218;2023-03-12T02:54:11;11.77;;;6.70;;
78989;SDS011;68390;52.130;21.218;2023-03-12T02:56:38;13.40;;;7.70;;
78989;SDS011;68390;52.130;21.218;2023-03-12T02:59:04;11.88;;;6.78;;
78989;SDS011;68390;52.130;21.218;2023-03-12T03:01:30;13.70;;;7.18;;
78989;SDS011;68390;52.130;21.218;2023-03-12T03:03:59;10.18;;;6.25;;
78989;SDS011;68390;52.130;21.218;2023-03-12T03:06:25;13.75;;;7.50;;
78989;SDS011;68390;52.130;21.218;2023-03-12T03:08:51;11.52;;;6.43;;
78989;SDS011;68390;52.130;21.218;2023-03-12T03:11:17;11.40;;;6.18;;
78989;SDS011;68390;52.130;21.218;2023-03-12T03:13:43;11.68;;;6.65;;
78989;SDS011;68390;52.130;21.218;2023-03-12T03:16:09;12.38;;;6.38;;
78989;SDS011;68390;52.130;21.218;2023-03-12T03:18:36;12.95;;;6.55;;
78989;SDS011;68390;52.130;21.218;2023-03-12T03:21:05;11.07;;;6.22;;
78989;SDS011;68390;52.130;21.218;2023-03-12T03:23:32;10.35;;;6.28;;
78989;SDS011;68390;52.130;21.218;2023-03-12T03:25:58;10.23;;;6.38;;
78989;SDS011;68390;52.130;21.218;2023-03-12T03:28:24;8.63;;;5.43;;
78989;SDS011;68390;52.130;21.218;2023-03-12T03:30:52;11.48;;;6.30;;
78989;SDS011;68390;52.130;21.218;2023-03-12T03:33:18;9.93;;;5.53;;
78989;SDS011;68390;52.130;21.218;2023-03-12T03:35:44;11.60;;;6.53;;
78989;SDS011;68390;52.130;21.218;2023-03-12T03:38:11;10.85;;;5.78;;
78989;SDS011;68390;52.130;21.218;2023-03-12T03:40:37;14.38;;;6.07;;
78989;SDS011;68390;52.130;21.218;2023-03-12T03:43:02;9.95;;;5.60;;
78989;SDS011;68390;52.130;21.218;2023-03-12T03:45:27;13.55;;;6.28;;
78989;SDS011;68390;52.130;21.218;2023-03-12T03:47:53;12.02;;;5.93;;
78989;SDS011;68390;52.130;21.218;2023-03-12T03:50:18;12.27;;;5.93;;
78989;SDS011;68390;52.130;21.218;2023-03-12T03:52:44;11.95;;;6.50;;
78989;SDS011;68390;52.130;21.218;2023-03-12T03:55:09;12.32;;;6.13;;
78989;SDS011;68390;52.130;21.218;2023-03-12T03:57:35;14.23;;;6.05;;
78989;SDS011;68390;52.130;21.218;2023-03-12T04:00:00;11.05;;;5.70;;
78989;SDS011;68390;52.130;21.218;2023-03-12T04:02:26;10.18;;;5.85;;
78989;SDS011;68390;52.130;21.218;2023-03-12T04:04:55;12.77;;;6.53;;
78989;SDS011;68390;52.130;21.218;2023-03-12T04:07:21;11.30;;;6.18;;
78989;SDS011;68390;52.130;21.218;2023-03-12T04:09:47;11.10;;;6.45;;
78989;SDS011;68390;52.130;21.218;2023-03-12T04:12:13;10.57;;;6.45;;
78989;SDS011;68390;52.130;21.218;2023-03-12T04:14:39;9.57;;;6.35;;
78989;SDS011;68390;52.130;21.218;2023-03-12T04:17:06;12.88;;;6.90;;
78989;SDS011;68390;52.130;21.218;2023-03-12T04:19:32;10.07;;;6.18;;
78989;SDS011;68390;52.130;21.218;2023-03-12T04:21:58;11.80;;;6.50;;
78989;SDS011;68390;52.130;21.218;2023-03-12T04:24:23;12.25;;;6.82;;
78989;SDS011;68390;52.130;21.218;2023-03-12T04:26:48;11.00;;;6.88;;
78989;SDS011;68390;52.130;21.218;2023-03-12T04:29:15;10.60;;;6.55;;
78989;SDS011;68390;52.130;21.218;2023-03-12T04:31:41;10.60;;;5.88;;
78989;SDS011;68390;52.130;21.218;2023-03-12T04:34:07;10.13;;;6.50;;
78989;SDS011;68390;52.130;21.218;2023-03-12T04:36:33;10.23;;;6.40;;
78989;SDS011;68390;52.130;21.218;2023-03-12T04:38:58;11.85;;;6.38;;
78989;SDS011;68390;52.130;21.218;2023-03-12T04:41:24;11.13;;;5.80;;
78989;SDS011;68390;52.130;21.218;2023-03-12T04:43:49;10.52;;;5.78;;
78989;SDS011;68390;52.130;21.218;2023-03-12T04:46:15;12.70;;;6.60;;
78989;SDS011;68390;52.130;21.218;2023-03-12T04:48:40;11.10;;;6.03;;
78989;SDS011;68390;52.130;21.218;2023-03-12T04:51:06;10.48;;;5.50;;
78989;SDS011;68390;52.130;21.218;2023-03-12T04:53:31;10.82;;;6.53;;
78989;SDS011;68390;52.130;21.218;2023-03-12T04:55:57;11.38;;;6.30;;
78989;SDS011;68390;52.130;21.218;2023-03-12T04:58:23;14.25;;;6.35;;
78989;SDS011;68390;52.130;21.218;2023-03-12T05:00:49;8.45;;;6.18;;
78989;SDS011;68390;52.130;21.218;2023-03-12T05:03:15;9.43;;;6.25;;
78989;SDS011;68390;52.130;21.218;2023-03-12T05:05:41;8.55;;;5.88;;
78989;SDS011;68390;52.130;21.218;2023-03-12T05:08:06;9.50;;;6.32;;
78989;SDS011;68390;52.130;21.218;2023-03-12T05:10:32;10.55;;;5.93;;
78989;SDS011;68390;52.130;21.218;2023-03-12T05:12:58;11.90;;;7.07;;
78989;SDS011;68390;52.130;21.218;2023-03-12T05:15:23;10.88;;;6.60;;
78989;SDS011;68390;52.130;21.218;2023-03-12T05:17:49;16.15;;;7.53;;
78989;SDS011;68390;52.130;21.218;2023-03-12T05:20:14;9.00;;;6.30;;
78989;SDS011;68390;52.130;21.218;2023-03-12T05:22:42;12.88;;;8.73;;
78989;SDS011;68390;52.130;21.218;2023-03-12T05:25:07;14.00;;;7.05;;
78989;SDS011;68390;52.130;21.218;2023-03-12T05:27:34;12.07;;;7.43;;
78989;SDS011;68390;52.130;21.218;2023-03-12T05:30:00;13.52;;;8.45;;
78989;SDS011;68390;52.130;21.218;2023-03-12T05:32:25;12.75;;;9.02;;
78989;SDS011;68390;52.130;21.218;2023-03-12T05:34:51;10.40;;;7.20;;
78989;SDS011;68390;52.130;21.218;2023-03-12T05:37:16;14.60;;;7.78;;
78989;SDS011;68390;52.130;21.218;2023-03-12T05:39:42;12.27;;;8.23;;
78989;SDS011;68390;52.130;21.218;2023-03-12T05:42:13;10.45;;;7.45;;
78989;SDS011;68390;52.130;21.218;2023-03-12T05:44:39;12.48;;;8.32;;
78989;SDS011;68390;52.130;21.218;2023-03-12T05:47:06;10.35;;;7.30;;
78989;SDS011;68390;52.130;21.218;2023-03-12T05:49:31;10.35;;;7.20;;
78989;SDS011;68390;52.130;21.218;2023-03-12T05:51:57;18.45;;;8.10;;
78989;SDS011;68390;52.130;21.218;2023-03-12T05:54:22;10.45;;;6.20;;
78989;SDS011;68390;52.130;21.218;2023-03-12T05:56:48;12.73;;;6.13;;
78989;SDS011;68390;52.130;21.218;2023-03-12T05:59:14;11.45;;;6.65;;
78989;SDS011;68390;52.130;21.218;2023-03-12T06:01:39;10.80;;;6.32;;
78989;SDS011;68390;52.130;21.218;2023-03-12T06:04:05;9.60;;;6.25;;
78989;SDS011;68390;52.130;21.218;2023-03-12T06:06:31;8.93;;;5.75;;
78989;SDS011;68390;52.130;21.218;2023-03-12T06:08:59;11.30;;;6.55;;
78989;SDS011;68390;52.130;21.218;2023-03-12T06:11:25;8.88;;;6.25;;
78989;SDS011;68390;52.130;21.218;2023-03-12T06:13:50;9.77;;;6.35;;
78989;SDS011;68390;52.130;21.218;2023-03-12T06:16:20;8.02;;;5.43;;
78989;SDS011;68390;52.130;21.218;2023-03-12T06:18:47;9.10;;;5.65;;
78989;SDS011;68390;52.130;21.218;2023-03-12T06:21:17;11.18;;;5.57;;
78989;SDS011;68390;52.130;21.218;2023-03-12T06:23:44;7.82;;;4.95;;
78989;SDS011;68390;52.130;21.218;2023-03-12T06:26:10;8.43;;;4.82;;
78989;SDS011;68390;52.130;21.218;2023-03-12T06:28:37;7.55;;;4.95;;
78989;SDS011;68390;52.130;21.218;2023-03-12T06:31:03;7.10;;;4.70;;
78989;SDS011;68390;52.130;21.218;2023-03-12T06:33:29;8.02;;;4.88;;
78989;SDS011;68390;52.130;21.218;2023-03-12T06:35:59;8.80;;;4.50;;
78989;SDS011;68390;52.130;21.218;2023-03-12T06:38:27;8.15;;;4.78;;
78989;SDS011;68390;52.130;21.218;2023-03-12T06:40:56;10.50;;;5.68;;
78989;SDS011;68390;52.130;21.218;2023-03-12T06:43:23;12.10;;;7.55;;
78989;SDS011;68390;52.130;21.218;2023-03-12T06:45:50;9.55;;;6.38;;
78989;SDS011;68390;52.130;21.218;2023-03-12T06:48:15;8.23;;;5.90;;
78989;SDS011;68390;52.130;21.218;2023-03-12T06:50:41;10.50;;;6.20;;
78989;SDS011;68390;52.130;21.218;2023-03-12T06:53:07;10.32;;;6.10;;
78989;SDS011;68390;52.130;21.218;2023-03-12T06:55:32;7.90;;;5.10;;
78989;SDS011;68390;52.130;21.218;2023-03-12T06:57:58;10.30;;;5.53;;
78989;SDS011;68390;52.130;21.218;2023-03-12T07:00:23;6.78;;;4.47;;
78989;SDS011;68390;52.130;21.218;2023-03-12T07:02:49;7.10;;;4.18;;
78989;SDS011;68390;52.130;21.218;2023-03-12T07:05:14;8.55;;;4.80;;
78989;SDS011;68390;52.130;21.218;2023-03-12T07:07:40;8.18;;;4.50;;
78989;SDS011;68390;52.130;21.218;2023-03-12T07:10:05;8.13;;;4.40;;
78989;SDS011;68390;52.130;21.218;2023-03-12T07:12:32;5.55;;;3.60;;
78989;SDS011;68390;52.130;21.218;2023-03-12T07:14:57;9.52;;;6.30;;
78989;SDS011;68390;52.130;21.218;2023-03-12T07:17:23;6.72;;;4.78;;
78989;SDS011;68390;52.130;21.218;2023-03-12T07:19:50;6.15;;;4.47;;
78989;SDS011;68390;52.130;21.218;2023-03-12T07:22:15;9.13;;;4.55;;
78989;SDS011;68390;52.130;21.218;2023-03-12T07:24:41;7.97;;;4.63;;
78989;SDS011;68390;52.130;21.218;2023-03-12T07:27:07;5.75;;;4.45;;
78989;SDS011;68390;52.130;21.218;2023-03-12T07:29:32;7.30;;;5.47;;
78989;SDS011;68390;52.130;21.218;2023-03-12T07:31:58;8.43;;;5.20;;
78989;SDS011;68390;52.130;21.218;2023-03-12T07:34:23;7.40;;;4.90;;
78989;SDS011;68390;52.130;21.218;2023-03-12T07:36:49;7.63;;;5.38;;
78989;SDS011;68390;52.130;21.218;2023-03-12T07:39:14;5.95;;;4.75;;
78989;SDS011;68390;52.130;21.218;2023-03-12T07:41:40;6.10;;;4.47;;
78989;SDS011;68390;52.130;21.218;2023-03-12T07:44:05;11.30;;;6.00;;
78989;SDS011;68390;52.130;21.218;2023-03-12T07:46:31;7.03;;;5.10;;
78989;SDS011;68390;52.130;21.218;2023-03-12T07:48:56;10.52;;;5.20;;
78989;SDS011;68390;52.130;21.218;2023-03-12T07:51:22;7.85;;;5.07;;
78989;SDS011;68390;52.130;21.218;2023-03-12T07:53:47;10.55;;;5.40;;
78989;SDS011;68390;52.130;21.218;2023-03-12T07:56:13;7.35;;;4.90;;
78989;SDS011;68390;52.130;21.218;2023-03-12T07:58:38;6.93;;;4.63;;
78989;SDS011;68390;52.130;21.218;2023-03-12T08:01:04;6.43;;;4.07;;
78989;SDS011;68390;52.130;21.218;2023-03-12T08:03:30;7.47;;;4.10;;
78989;SDS011;68390;52.130;21.218;2023-03-12T08:06:00;8.07;;;4.13;;
78989;SDS011;68390;52.130;21.218;2023-03-12T08:08:27;6.50;;;4.07;;
78989;SDS011;68390;52.130;21.218;2023-03-12T08:10:53;5.25;;;3.88;;
78989;SDS011;68390;52.130;21.218;2023-03-12T08:13:19;6.30;;;3.92;;
78989;SDS011;68390;52.130;21.218;2023-03-12T08:15:44;5.93;;;3.65;;
78989;SDS011;68390;52.130;21.218;2023-03-12T08:18:10;6.18;;;3.45;;
78989;SDS011;68390;52.130;21.218;2023-03-12T08:20:35;6.32;;;3.80;;
78989;SDS011;68390;52.130;21.218;2023-03-12T08:23:01;10.55;;;4.25;;
78989;SDS011;68390;52.130;21.218;2023-03-12T08:25:26;5.85;;;3.60;;
78989;SDS011;68390;52.130;21.218;2023-03-12T08:27:52;7.07;;;3.50;;
78989;SDS011;68390;52.130;21.218;2023-03-12T08:30:18;7.38;;;3.20;;
78989;SDS011;68390;52.130;21.218;2023-03-12T08:32:45;5.80;;;3.08;;
78989;SDS011;68390;52.130;21.218;2023-03-12T08:35:10;7.20;;;3.60;;
78989;SDS011;68390;52.130;21.218;2023-03-12T08:37:36;5.20;;;3.10;;
78989;SDS011;68390;52.130;21.218;2023-03-12T08:40:02;5.82;;;3.05;;
78989;SDS011;68390;52.130;21.218;2023-03-12T08:42:36;5.05;;;2.50;;
78989;SDS011;68390;52.130;21.218;2023-03-12T08:45:03;5.55;;;2.92;;
78989;SDS011;68390;52.130;21.218;2023-03-12T08:47:28;5.93;;;3.15;;
78989;SDS011;68390;52.130;21.218;2023-03-12T08:49:54;6.80;;;3.58;;
78989;SDS011;68390;52.130;21.218;2023-03-12T08:52:19;5.22;;;2.63;;
78989;SDS011;68390;52.130;21.218;2023-03-12T08:54:44;7.28;;;2.75;;
78989;SDS011;68390;52.130;21.218;2023-03-12T08:57:10;4.13;;;2.60;;
78989;SDS011;68390;52.130;21.218;2023-03-12T08:59:35;5.55;;;2.53;;
78989;SDS011;68390;52.130;21.218;2023-03-12T09:02:01;4.88;;;2.60;;
78989;SDS011;68390;52.130;21.218;2023-03-12T09:04:26;5.10;;;2.92;;
78989;SDS011;68390;52.130;21.218;2023-03-12T09:06:52;5.85;;;3.10;;
78989;SDS011;68390;52.130;21.218;2023-03-12T09:09:17;7.03;;;3.28;;
78989;SDS011;68390;52.130;21.218;2023-03-12T09:11:42;6.30;;;2.85;;
78989;SDS011;68390;52.130;21.218;2023-03-12T09:14:08;6.90;;;3.30;;
78989;SDS011;68390;52.130;21.218;2023-03-12T09:16:34;5.40;;;3.08;;
78989;SDS011;68390;52.130;21.218;2023-03-12T09:18:59;7.13;;;3.88;;
78989;SDS011;68390;52.130;21.218;2023-03-12T09:21:25;6.57;;;3.80;;
78989;SDS011;68390;52.130;21.218;2023-03-12T09:23:50;6.07;;;3.08;;
78989;SDS011;68390;52.130;21.218;2023-03-12T09:26:16;4.13;;;2.65;;
78989;SDS011;68390;52.130;21.218;2023-03-12T09:28:41;5.28;;;2.95;;
78989;SDS011;68390;52.130;21.218;2023-03-12T09:31:08;3.83;;;2.20;;
78989;SDS011;68390;52.130;21.218;2023-03-12T09:33:34;3.53;;;2.13;;
78989;SDS011;68390;52.130;21.218;2023-03-12T09:36:00;7.63;;;1.95;;
78989;SDS011;68390;52.130;21.218;2023-03-12T09:38:26;4.78;;;2.08;;
78989;SDS011;68390;52.130;21.218;2023-03-12T09:40:52;4.15;;;2.25;;
78989;SDS011;68390;52.130;21.218;2023-03-12T09:45:56;6.80;;;4.13;;
78989;SDS011;68390;52.130;21.218;2023-03-12T09:48:32;3.55;;;2.10;;
78989;SDS011;68390;52.130;21.218;2023-03-12T09:51:01;31.17;;;28.48;;
78989;SDS011;68390;52.130;21.218;2023-03-12T09:53:41;7.63;;;6.03;;
78989;SDS011;68390;52.130;21.218;2023-03-12T09:56:19;4.35;;;2.17;;
78989;SDS011;68390;52.130;21.218;2023-03-12T09:58:46;6.53;;;2.20;;
78989;SDS011;68390;52.130;21.218;2023-03-12T10:18:03;33.83;;;10.50;;
78989;SDS011;68390;52.130;21.218;2023-03-12T10:24:29;6.95;;;2.70;;
78989;SDS011;68390;52.130;21.218;2023-03-12T10:29:02;8.63;;;2.95;;
78989;SDS011;68390;52.130;21.218;2023-03-12T10:34:33;20.42;;;5.53;;
78989;SDS011;68390;52.130;21.218;2023-03-12T10:37:50;13.00;;;4.80;;
78989;SDS011;68390;52.130;21.218;2023-03-12T10:40:13;6.10;;;2.50;;
78989;SDS011;68390;52.130;21.218;2023-03-12T10:42:40;5.68;;;2.38;;
78989;SDS011;68390;52.130;21.218;2023-03-12T10:47:41;19.73;;;5.82;;
78989;SDS011;68390;52.130;21.218;2023-03-12T10:50:12;11.85;;;3.15;;
78989;SDS011;68390;52.130;21.218;2023-03-12T10:52:38;6.40;;;2.75;;
78989;SDS011;68390;52.130;21.218;2023-03-12T10:57:45;7.15;;;2.65;;
78989;SDS011;68390;52.130;21.218;2023-03-12T11:00:44;18.00;;;4.95;;
78989;SDS011;68390;52.130;21.218;2023-03-12T11:03:16;13.05;;;3.30;;
78989;SDS011;68390;52.130;21.218;2023-03-12T11:05:45;5.97;;;2.67;;
78989;SDS011;68390;52.130;21.218;2023-03-12T11:08:20;6.00;;;2.38;;
78989;SDS011;68390;52.130;21.218;2023-03-12T11:10:52;9.90;;;3.13;;
78989;SDS011;68390;52.130;21.218;2023-03-12T11:13:23;7.97;;;2.75;;
78989;SDS011;68390;52.130;21.218;2023-03-12T11:16:00;7.28;;;2.42;;
78989;SDS011;68390;52.130;21.218;2023-03-12T11:18:39;6.15;;;2.55;;
78989;SDS011;68390;52.130;21.218;2023-03-12T11:23:33;6.55;;;2.15;;
78989;SDS011;68390;52.130;21.218;2023-03-12T11:26:00;7.55;;;3.10;;
78989;SDS011;68390;52.130;21.218;2023-03-12T11:28:34;6.13;;;2.22;;
78989;SDS011;68390;52.130;21.218;2023-03-12T11:31:02;4.25;;;1.85;;
78989;SDS011;68390;52.130;21.218;2023-03-12T11:33:33;8.85;;;2.70;;
78989;SDS011;68390;52.130;21.218;2023-03-12T11:38:37;6.80;;;2.75;;
78989;SDS011;68390;52.130;21.218;2023-03-12T11:41:19;8.32;;;3.47;;
78989;SDS011;68390;52.130;21.218;2023-03-12T12:02:40;7.13;;;3.10;;
78989;SDS011;68390;52.130;21.218;2023-03-12T12:11:13;5.65;;;2.78;;
78989;SDS011;68390;52.130;21.218;2023-03-12T12:16:50;6.45;;;2.50;;
78989;SDS011;68390;52.130;21.218;2023-03-12T12:19:38;9.05;;;2.78;;
78989;SDS011;68390;52.130;21.218;2023-03-12T12:27:22;5.75;;;2.20;;
78989;SDS011;68390;52.130;21.218;2023-03-12T12:30:11;5.72;;;2.15;;
78989;SDS011;68390;52.130;21.218;2023-03-12T12:32:58;4.75;;;2.10;;
78989;SDS011;68390;52.130;21.218;2023-03-12T12:35:44;5.20;;;1.88;;
78989;SDS011;68390;52.130;21.218;2023-03-12T12:38:18;5.25;;;2.20;;
78989;SDS011;68390;52.130;21.218;2023-03-12T12:41:20;4.35;;;2.03;;
78989;SDS011;68390;52.130;21.218;2023-03-12T12:46:21;7.30;;;2.10;;
78989;SDS011;68390;52.130;21.218;2023-03-12T12:51:22;5.57;;;2.22;;
78989;SDS011;68390;52.130;21.218;2023-03-12T12:56:42;5.53;;;2.00;;
78989;SDS011;68390;52.130;21.218;2023-03-12T12:59:39;5.03;;;2.15;;
78989;SDS011;68390;52.130;21.218;2023-03-12T13:02:19;5.50;;;2.22;;
78989;SDS011;68390;52.130;21.218;2023-03-12T13:04:48;6.15;;;2.10;;
78989;SDS011;68390;52.130;21.218;2023-03-12T13:09:40;5.22;;;2.40;;
78989;SDS011;68390;52.130;21.218;2023-03-12T13:14:39;3.85;;;2.10;;
78989;SDS011;68390;52.130;21.218;2023-03-12T13:19:51;8.85;;;3.55;;
78989;SDS011;68390;52.130;21.218;2023-03-12T13:26:05;4.03;;;2.10;;
78989;SDS011;68390;52.130;21.218;2023-03-12T13:34:07;4.35;;;2.42;;
78989;SDS011;68390;52.130;21.218;2023-03-12T13:36:42;6.43;;;2.15;;
78989;SDS011;68390;52.130;21.218;2023-03-12T13:54:42;4.78;;;2.05;;
78989;SDS011;68390;52.130;21.218;2023-03-12T13:57:10;6.43;;;2.40;;
78989;SDS011;68390;52.130;21.218;2023-03-12T13:59:56;5.35;;;2.05;;
78989;SDS011;68390;52.130;21.218;2023-03-12T14:02:30;7.78;;;3.00;;
78989;SDS011;68390;52.130;21.218;2023-03-12T14:05:03;7.38;;;2.30;;
78989;SDS011;68390;52.130;21.218;2023-03-12T14:10:15;6.95;;;2.10;;
78989;SDS011;68390;52.130;21.218;2023-03-12T14:15:35;6.68;;;2.42;;
78989;SDS011;68390;52.130;21.218;2023-03-12T14:18:12;5.30;;;2.33;;
78989;SDS011;68390;52.130;21.218;2023-03-12T14:20:42;4.43;;;2.25;;
78989;SDS011;68390;52.130;21.218;2023-03-12T14:23:24;5.07;;;2.17;;
78989;SDS011;68390;52.130;21.218;2023-03-12T14:25:55;5.55;;;3.08;;
78989;SDS011;68390;52.130;21.218;2023-03-12T14:28:23;3.58;;;2.30;;
78989;SDS011;68390;52.130;21.218;2023-03-12T14:30:59;7.15;;;2.67;;
78989;SDS011;68390;52.130;21.218;2023-03-12T14:33:51;4.78;;;2.20;;
78989;SDS011;68390;52.130;21.218;2023-03-12T14:38:48;6.03;;;2.30;;
78989;SDS011;68390;52.130;21.218;2023-03-12T14:41:19;6.35;;;2.40;;
78989;SDS011;68390;52.130;21.218;2023-03-12T14:43:53;5.20;;;2.38;;
78989;SDS011;68390;52.130;21.218;2023-03-12T14:46:22;5.72;;;2.65;;
78989;SDS011;68390;52.130;21.218;2023-03-12T14:48:52;4.75;;;2.53;;
78989;SDS011;68390;52.130;21.218;2023-03-12T14:51:25;5.45;;;2.50;;
78989;SDS011;68390;52.130;21.218;2023-03-12T14:53:54;5.60;;;2.38;;
78989;SDS011;68390;52.130;21.218;2023-03-12T14:56:24;5.70;;;2.60;;
78989;SDS011;68390;52.130;21.218;2023-03-12T14:58:54;6.32;;;2.55;;
78989;SDS011;68390;52.130;21.218;2023-03-12T15:01:21;4.50;;;2.22;;
78989;SDS011;68390;52.130;21.218;2023-03-12T15:03:57;4.68;;;2.33;;
78989;SDS011;68390;52.130;21.218;2023-03-12T15:06:47;7.45;;;2.42;;
78989;SDS011;68390;52.130;21.218;2023-03-12T15:09:23;4.43;;;2.40;;
78989;SDS011;68390;52.130;21.218;2023-03-12T15:11:57;6.15;;;3.10;;
78989;SDS011;68390;52.130;21.218;2023-03-12T15:14:26;7.80;;;2.72;;
78989;SDS011;68390;52.130;21.218;2023-03-12T15:16:54;5.18;;;3.05;;
78989;SDS011;68390;52.130;21.218;2023-03-12T15:19:22;6.65;;;2.50;;
78989;SDS011;68390;52.130;21.218;2023-03-12T15:21:55;4.63;;;2.53;;
78989;SDS011;68390;52.130;21.218;2023-03-12T15:24:21;5.90;;;2.67;;
78989;SDS011;68390;52.130;21.218;2023-03-12T15:26:47;4.10;;;2.60;;
78989;SDS011;68390;52.130;21.218;2023-03-12T15:31:44;7.97;;;3.47;;
78989;SDS011;68390;52.130;21.218;2023-03-12T15:34:12;7.25;;;3.08;;
78989;SDS011;68390;52.130;21.218;2023-03-12T15:36:50;14.55;;;7.13;;
78989;SDS011;68390;52.130;21.218;2023-03-12T15:39:31;10.45;;;4.57;;
78989;SDS011;68390;52.130;21.218;2023-03-12T15:42:08;7.80;;;3.50;;
78989;SDS011;68390;52.130;21.218;2023-03-12T15:47:10;4.38;;;2.58;;
78989;SDS011;68390;52.130;21.218;2023-03-12T15:49:39;6.50;;;3.33;;
78989;SDS011;68390;52.130;21.218;2023-03-12T15:54:57;8.10;;;3.25;;
78989;SDS011;68390;52.130;21.218;2023-03-12T15:57:25;8.68;;;3.25;;
78989;SDS011;68390;52.130;21.218;2023-03-12T16:00:05;8.30;;;3.50;;
78989;SDS011;68390;52.130;21.218;2023-03-12T16:02:36;5.35;;;2.92;;
78989;SDS011;68390;52.130;21.218;2023-03-12T16:05:35;7.72;;;2.97;;
78989;SDS011;68390;52.130;21.218;2023-03-12T16:08:19;9.40;;;3.13;;
78989;SDS011;68390;52.130;21.218;2023-03-12T16:10:47;7.50;;;3.72;;
78989;SDS011;68390;52.130;21.218;2023-03-12T16:13:15;7.13;;;3.22;;
78989;SDS011;68390;52.130;21.218;2023-03-12T16:18:10;6.35;;;3.00;;
78989;SDS011;68390;52.130;21.218;2023-03-12T16:20:37;6.10;;;3.13;;
78989;SDS011;68390;52.130;21.218;2023-03-12T16:25:37;5.90;;;3.05;;
78989;SDS011;68390;52.130;21.218;2023-03-12T16:28:06;9.02;;;4.10;;
78989;SDS011;68390;52.130;21.218;2023-03-12T16:30:32;7.95;;;3.42;;
78989;SDS011;68390;52.130;21.218;2023-03-12T16:33:01;10.63;;;4.57;;
78989;SDS011;68390;52.130;21.218;2023-03-12T16:35:28;8.85;;;3.95;;
78989;SDS011;68390;52.130;21.218;2023-03-12T16:37:58;9.35;;;5.68;;
78989;SDS011;68390;52.130;21.218;2023-03-12T16:40:27;11.55;;;6.05;;
78989;SDS011;68390;52.130;21.218;2023-03-12T16:42:55;10.07;;;5.60;;
78989;SDS011;68390;52.130;21.218;2023-03-12T16:45:26;7.97;;;4.82;;
78989;SDS011;68390;52.130;21.218;2023-03-12T16:47:53;10.35;;;4.55;;
78989;SDS011;68390;52.130;21.218;2023-03-12T16:50:22;11.82;;;4.78;;
78989;SDS011;68390;52.130;21.218;2023-03-12T16:52:48;11.65;;;5.20;;
78989;SDS011;68390;52.130;21.218;2023-03-12T16:55:18;11.98;;;5.18;;
78989;SDS011;68390;52.130;21.218;2023-03-12T16:57:51;12.75;;;6.78;;
78989;SDS011;68390;52.130;21.218;2023-03-12T17:05:56;15.90;;;8.82;;
78989;SDS011;68390;52.130;21.218;2023-03-12T17:08:22;26.65;;;12.90;;
78989;SDS011;68390;52.130;21.218;2023-03-12T17:10:47;20.27;;;11.02;;